Time;durP1;ratioP1;P1;durP2;ratioP2;P2;SDS_P1;SDS_P2;PMS_P1;PMS_P2;Temp;Humidity;BMP_temperature;BMP_pressure;BME280_temperature;BME280_humidity;BME280_pressure;Samples;Min_cycle;Max_cycle;Signal;HPM_P1;HPM_P2
2023/02/16 00:00:50;;;;;;;0.32;0.32;;;5.40;90.00;;;;;;5063007;28;20037;-81
2023/02/16 00:03:19;;;;;;;0.30;0.30;;;5.50;90.00;;;;;;5065348;28;20455;-80
2023/02/16 00:05:45;;;;;;;0.20;0.20;;;5.50;89.80;;;;;;5064649;28;20107;-80
2023/02/16 00:08:11;;;;;;;0.10;0.10;;;5.60;89.40;;;;;;5062918;28;20059;-81
2023/02/16 00:10:38;;;;;;;0.70;0.70;;;5.50;89.60;;;;;;5064388;28;20054;-80
2023/02/16 00:13:51;;;;;;;0.22;0.22;;;5.50;89.60;;;;;;5062597;28;20044;-79
2023/02/16 00:16:19;;;;;;;0.32;0.32;;;5.50;89.60;;;;;;5059551;28;20029;-79
2023/02/16 00:18:46;;;;;;;0.10;0.10;;;5.40;90.00;;;;;;5064723;28;20036;-80
2023/02/16 00:21:12;;;;;;;0.20;0.20;;;5.40;90.10;;;;;;5064701;28;20691;-81
2023/02/16 00:23:38;;;;;;;0.38;0.38;;;5.40;90.10;;;;;;5063705;28;20245;-79
2023/02/16 00:26:09;;;;;;;0.10;0.10;;;5.30;90.20;;;;;;5064035;28;20443;-78
2023/02/16 00:28:35;;;;;;;0.50;0.20;;;5.30;90.30;;;;;;5064281;28;20301;-80
2023/02/16 00:31:01;;;;;;;0.03;0.03;;;5.20;90.40;;;;;;5063612;28;20074;-78
2023/02/16 00:33:26;;;;;;;0.20;0.20;;;5.20;90.50;;;;;;5063452;28;20046;-81
2023/02/16 00:35:52;;;;;;;0.30;0.30;;;5.10;90.60;;;;;;5063820;28;20512;-80
2023/02/16 00:38:18;;;;;;;0.13;0.13;;;5.10;90.70;;;;;;5064181;28;20112;-79
2023/02/16 00:40:44;;;;;;;0.70;0.55;;;5.10;90.70;;;;;;5064182;28;20039;-78
2023/02/16 00:43:26;;;;;;;0.00;0.00;;;5.00;90.70;;;;;;5063837;28;20092;-80
2023/02/16 00:45:52;;;;;;;0.20;0.20;;;4.90;90.90;;;;;;5062255;28;20013;-80
2023/02/16 00:48:18;;;;;;;0.10;0.10;;;4.90;91.00;;;;;;5061757;28;20097;-80
2023/02/16 00:50:44;;;;;;;0.10;0.10;;;4.90;91.00;;;;;;5062636;28;20279;-84
2023/02/16 00:53:10;;;;;;;0.10;0.10;;;4.90;91.00;;;;;;5063955;28;20029;-83
2023/02/16 00:55:38;;;;;;;0.10;0.10;;;4.90;91.00;;;;;;5063487;28;20051;-80
2023/02/16 00:58:29;;;;;;;0.40;0.40;;;4.80;91.10;;;;;;5063696;28;20028;-80
2023/02/16 01:00:59;;;;;;;0.30;0.30;;;4.80;91.10;;;;;;5062553;28;20033;-80
2023/02/16 01:03:27;;;;;;;0.30;0.30;;;4.80;91.20;;;;;;5063417;28;20036;-81
2023/02/16 01:11:06;;;;;;;0.40;0.40;;;4.80;91.20;;;;;;5063299;28;20025;-79
2023/02/16 01:11:25;;;;;;;0.50;0.50;;;4.70;91.30;;;;;;5063394;28;20039;-78
2023/02/16 01:13:52;;;;;;;0.20;0.20;;;4.80;91.30;;;;;;5063409;28;20040;-79
2023/02/16 01:16:21;;;;;;;0.20;0.20;;;4.70;91.30;;;;;;5063310;28;20025;-81
2023/02/16 01:18:47;;;;;;;0.10;0.10;;;4.80;91.40;;;;;;5059094;28;20039;-81
2023/02/16 01:21:13;;;;;;;0.10;0.10;;;4.70;91.40;;;;;;5062225;28;20103;-83
2023/02/16 01:23:39;;;;;;;0.17;0.17;;;4.60;91.60;;;;;;5062446;28;20335;-81
2023/02/16 01:26:10;;;;;;;0.73;0.73;;;4.60;91.80;;;;;;5061242;28;20032;-80
2023/02/16 01:28:36;;;;;;;0.10;0.10;;;4.60;91.70;;;;;;5063038;28;20029;-80
2023/02/16 01:31:02;;;;;;;0.32;0.32;;;4.60;91.80;;;;;;5063787;28;20017;-83
2023/02/16 01:33:28;;;;;;;1.75;0.75;;;4.60;91.90;;;;;;5062301;28;20488;-80
2023/02/16 01:35:55;;;;;;;0.38;0.38;;;4.60;91.90;;;;;;5061559;28;20039;-80
2023/02/16 01:38:27;;;;;;;0.35;0.35;;;4.60;92.00;;;;;;5063347;28;20024;-80
2023/02/16 01:41:21;;;;;;;0.30;0.30;;;4.50;92.20;;;;;;5063778;28;20025;-81
2023/02/16 01:43:57;;;;;;;0.20;0.20;;;4.40;92.40;;;;;;5060630;28;20036;-81
2023/02/16 01:46:37;;;;;;;0.15;0.15;;;4.40;92.50;;;;;;5060374;28;20407;-80
2023/02/16 01:49:03;;;;;;;0.13;0.13;;;4.40;92.70;;;;;;5059322;28;20048;-82
2023/02/16 01:51:37;;;;;;;0.13;0.13;;;4.30;92.70;;;;;;5062458;28;20028;-80
2023/02/16 01:54:28;;;;;;;0.25;0.25;;;4.30;92.80;;;;;;5060945;28;20041;-80
2023/02/16 01:57:10;;;;;;;0.63;0.63;;;4.30;93.00;;;;;;5060822;28;20515;-78
2023/02/16 01:59:40;;;;;;;0.15;0.15;;;4.20;93.20;;;;;;5063016;28;20032;-82
2023/02/16 02:02:16;;;;;;;0.82;0.65;;;4.30;93.10;;;;;;5059788;28;20055;-81
2023/02/16 02:07:46;;;;;;;0.10;0.10;;;4.20;93.20;;;;;;5062158;28;20039;-79
2023/02/16 02:10:28;;;;;;;0.25;0.25;;;4.20;93.20;;;;;;5062524;28;20059;-82
2023/02/16 02:13:23;;;;;;;6.20;0.60;;;4.20;93.30;;;;;;5056375;28;20640;-79
2023/02/16 02:15:49;;;;;;;0.10;0.10;;;4.20;93.40;;;;;;5061900;28;20084;-80
2023/02/16 02:18:15;;;;;;;0.32;0.32;;;4.00;93.60;;;;;;5057065;28;20543;-79
2023/02/16 02:24:37;;;;;;;0.28;0.28;;;4.10;93.50;;;;;;5061768;28;20035;-82
2023/02/16 02:27:22;;;;;;;0.90;0.40;;;4.00;93.60;;;;;;5059772;28;20025;-82
2023/02/16 02:29:53;;;;;;;1.65;1.55;;;3.90;93.90;;;;;;5062130;28;20028;-78
2023/02/16 02:32:31;;;;;;;0.17;0.17;;;4.00;93.80;;;;;;5063023;28;20036;-78
2023/02/16 02:35:26;;;;;;;1.00;1.00;;;3.90;94.10;;;;;;5059911;28;20107;-79
2023/02/16 02:38:03;;;;;;;0.10;0.10;;;3.90;93.90;;;;;;5060269;28;20460;-79
2023/02/16 02:40:57;;;;;;;0.77;0.63;;;4.00;93.80;;;;;;5060975;28;20032;-78
2023/02/16 02:43:42;;;;;;;0.28;0.28;;;3.90;93.90;;;;;;5061167;28;20039;-79
2023/02/16 02:46:25;;;;;;;0.30;0.30;;;3.80;94.10;;;;;;5057127;28;20039;-78
2023/02/16 02:48:51;;;;;;;0.32;0.32;;;3.80;94.30;;;;;;5062825;28;20032;-79
2023/02/16 02:51:29;;;;;;;0.30;0.30;;;3.80;94.30;;;;;;5062032;28;20506;-80
2023/02/16 03:02:58;;;;;;;1.08;1.02;;;3.80;94.60;;;;;;5055473;28;20063;-81
2023/02/16 03:05:27;;;;;;;0.90;0.90;;;3.70;94.90;;;;;;5061642;28;20055;-79
2023/02/16 03:07:56;;;;;;;0.68;0.68;;;3.60;95.00;;;;;;5062210;28;20039;-81
2023/02/16 03:13:23;;;;;;;0.20;0.20;;;3.70;94.70;;;;;;5061273;28;20551;-80
2023/02/16 03:15:54;;;;;;;0.30;0.30;;;3.60;94.70;;;;;;5061091;28;20035;-79
2023/02/16 03:29:26;;;;;;;1.08;0.40;;;3.50;94.80;;;;;;5064996;28;20541;-79
2023/02/16 03:31:54;;;;;;;0.98;0.85;;;3.40;95.10;;;;;;5065595;28;20054;-80
2023/02/16 03:34:20;;;;;;;1.80;0.40;;;3.30;95.30;;;;;;5058236;28;20089;-79
2023/02/16 03:36:49;;;;;;;0.15;0.15;;;3.20;95.40;;;;;;5065448;28;20028;-79
2023/02/16 03:39:15;;;;;;;0.35;0.35;;;3.20;95.60;;;;;;5064332;28;20113;-79
2023/02/16 03:41:48;;;;;;;0.70;0.70;;;3.20;95.50;;;;;;5064963;28;20040;-79
2023/02/16 03:44:14;;;;;;;1.50;1.40;;;3.20;95.40;;;;;;5064794;28;20090;-79
2023/02/16 03:46:40;;;;;;;0.20;0.20;;;3.20;95.50;;;;;;5062709;28;20151;-77
2023/02/16 03:49:06;;;;;;;0.20;0.20;;;3.10;95.70;;;;;;5064844;28;20032;-79
2023/02/16 03:51:32;;;;;;;0.63;0.47;;;3.00;95.80;;;;;;5064210;28;20259;-79
2023/02/16 03:53:58;;;;;;;12.95;0.75;;;3.00;95.90;;;;;;5063988;28;20513;-80
2023/02/16 03:56:24;;;;;;;0.32;0.32;;;2.90;95.90;;;;;;5065612;28;20772;-80
2023/02/16 03:58:52;;;;;;;0.70;0.63;;;2.90;95.90;;;;;;5061393;28;20104;-81
2023/02/16 04:01:17;;;;;;;0.35;0.35;;;2.90;95.90;;;;;;5058937;28;20048;-80
2023/02/16 04:03:43;;;;;;;0.10;0.10;;;2.90;95.90;;;;;;5064965;28;20392;-81
2023/02/16 04:06:09;;;;;;;0.65;0.65;;;2.90;96.00;;;;;;5063394;28;20032;-79
2023/02/16 04:08:35;;;;;;;1.00;0.90;;;2.80;96.00;;;;;;5064677;28;20036;-79
2023/02/16 04:12:34;;;;;;;0.15;0.15;;;2.80;96.00;;;;;;5064742;28;20060;-80
2023/02/16 04:13:47;;;;;;;1.25;1.25;;;2.80;96.00;;;;;;5058698;28;20032;-80
2023/02/16 04:16:12;;;;;;;0.47;0.47;;;2.70;96.10;;;;;;5063408;28;20446;-80
2023/02/16 04:18:38;;;;;;;0.52;0.52;;;2.70;96.10;;;;;;5064493;28;20043;-79
2023/02/16 04:21:04;;;;;;;1.63;1.00;;;2.70;96.20;;;;;;5063649;28;20479;-80
2023/02/16 04:23:29;;;;;;;0.40;0.40;;;2.60;96.30;;;;;;5063141;28;20218;-80
2023/02/16 04:25:55;;;;;;;0.93;0.88;;;2.60;96.30;;;;;;5065027;28;20039;-80
2023/02/16 04:28:21;;;;;;;0.30;0.30;;;2.60;96.40;;;;;;5065099;28;20899;-79
2023/02/16 04:30:46;;;;;;;0.40;0.40;;;2.60;96.40;;;;;;5065049;28;20033;-80
2023/02/16 04:33:12;;;;;;;23.38;1.65;;;2.50;96.70;;;;;;5061325;28;20025;-79
2023/02/16 04:35:38;;;;;;;0.20;0.20;;;2.60;96.40;;;;;;5064530;28;20037;-79
2023/02/16 04:38:04;;;;;;;0.47;0.40;;;2.60;96.30;;;;;;5064035;28;20090;-79
2023/02/16 04:40:29;;;;;;;1.08;0.95;;;2.60;96.40;;;;;;5065358;28;20480;-79
2023/02/16 04:42:55;;;;;;;0.30;0.30;;;2.50;96.40;;;;;;5065183;28;20575;-81
2023/02/16 04:45:21;;;;;;;0.40;0.40;;;2.50;96.50;;;;;;5065131;28;20032;-80
2023/02/16 04:47:46;;;;;;;0.30;0.30;;;2.50;96.50;;;;;;5063425;28;20028;-79
2023/02/16 04:50:12;;;;;;;0.20;0.20;;;2.50;96.60;;;;;;5064527;28;20025;-80
2023/02/16 04:52:38;;;;;;;0.20;0.20;;;2.40;96.60;;;;;;5065882;28;20040;-79
2023/02/16 04:55:05;;;;;;;0.10;0.10;;;2.40;96.80;;;;;;5063150;28;20028;-80
2023/02/16 04:57:31;;;;;;;0.73;0.60;;;2.40;96.80;;;;;;5057779;28;20120;-82
2023/02/16 04:59:56;;;;;;;0.10;0.10;;;2.30;96.90;;;;;;5063535;28;20033;-79
2023/02/16 05:02:22;;;;;;;0.15;0.15;;;2.30;97.00;;;;;;5063436;28;20052;-80
2023/02/16 05:04:48;;;;;;;0.40;0.40;;;2.30;96.90;;;;;;5065629;28;20174;-77
2023/02/16 05:07:13;;;;;;;0.93;0.93;;;2.30;96.90;;;;;;5062426;28;20028;-78
2023/02/16 05:09:39;;;;;;;0.65;0.65;;;2.30;97.10;;;;;;5063338;28;20040;-79
2023/02/16 05:14:49;;;;;;;0.73;0.73;;;2.30;97.10;;;;;;5061645;28;20131;-78
2023/02/16 05:17:17;;;;;;;0.20;0.20;;;2.20;97.10;;;;;;5062751;28;20036;-79
2023/02/16 05:19:46;;;;;;;0.13;0.13;;;2.20;97.10;;;;;;5061956;28;20046;-78
2023/02/16 05:22:13;;;;;;;0.60;0.50;;;2.20;97.10;;;;;;5062765;28;20060;-79
2023/02/16 05:24:40;;;;;;;0.20;0.20;;;2.10;97.20;;;;;;5059520;28;20036;-81
2023/02/16 05:27:09;;;;;;;0.82;0.82;;;2.20;97.20;;;;;;5062612;28;20025;-80
2023/02/16 05:29:35;;;;;;;0.77;0.77;;;2.10;97.20;;;;;;5061413;28;20056;-80
2023/02/16 05:32:01;;;;;;;0.63;0.63;;;2.10;97.20;;;;;;5062435;28;20162;-79
2023/02/16 05:34:27;;;;;;;0.32;0.32;;;2.10;97.20;;;;;;5057360;28;20028;-78
2023/02/16 05:36:54;;;;;;;1.00;1.00;;;2.10;97.30;;;;;;5060715;28;20590;-81
2023/02/16 05:39:20;;;;;;;0.20;0.20;;;2.10;97.30;;;;;;5062399;28;20036;-79
2023/02/16 05:41:45;;;;;;;1.70;1.30;;;1.90;97.40;;;;;;5062831;28;20156;-80
2023/02/16 05:44:12;;;;;;;0.10;0.10;;;2.00;97.40;;;;;;5062458;28;20043;-82
2023/02/16 05:46:39;;;;;;;0.10;0.10;;;1.90;97.50;;;;;;5060818;28;20029;-80
2023/02/16 05:49:05;;;;;;;0.10;0.10;;;1.90;97.60;;;;;;5061211;28;20829;-81
2023/02/16 05:51:31;;;;;;;0.70;0.52;;;1.90;97.60;;;;;;5062403;28;20106;-80
2023/02/16 05:53:57;;;;;;;0.20;0.20;;;2.00;97.70;;;;;;5062379;28;20119;-80
2023/02/16 05:56:23;;;;;;;3.08;0.77;;;1.80;97.80;;;;;;5061432;28;20043;-80
2023/02/16 05:58:49;;;;;;;0.40;0.33;;;1.80;98.10;;;;;;5062690;28;20028;-79
2023/02/16 06:01:16;;;;;;;0.10;0.10;;;1.80;98.20;;;;;;5058873;28;20049;-79
2023/02/16 06:03:42;;;;;;;0.90;0.90;;;1.90;97.90;;;;;;5062975;28;20036;-80
2023/02/16 06:06:08;;;;;;;0.38;0.38;;;1.90;97.80;;;;;;5060193;28;20550;-78
2023/02/16 06:08:35;;;;;;;0.30;0.30;;;1.90;98.00;;;;;;5060769;28;20025;-79
2023/02/16 06:11:00;;;;;;;0.63;0.63;;;1.80;98.10;;;;;;5063445;28;20104;-79
2023/02/16 06:13:26;;;;;;;0.45;0.45;;;1.80;98.00;;;;;;5063148;28;20769;-79
2023/02/16 06:15:56;;;;;;;1.80;1.65;;;1.80;98.00;;;;;;5062224;28;20039;-80
2023/02/16 06:18:23;;;;;;;0.52;0.40;;;1.70;98.00;;;;;;5056762;28;20021;-79
2023/02/16 06:20:49;;;;;;;0.28;0.28;;;1.80;97.90;;;;;;5062152;28;20029;-78
2023/02/16 06:23:15;;;;;;;0.17;0.17;;;1.80;98.00;;;;;;5061807;28;20032;-78
2023/02/16 06:25:48;;;;;;;4.70;0.68;;;1.80;97.80;;;;;;5061816;28;20063;-81
2023/02/16 06:28:13;;;;;;;0.20;0.20;;;1.80;97.70;;;;;;5060658;28;20032;-82
2023/02/16 06:30:41;;;;;;;0.40;0.40;;;1.80;97.80;;;;;;5061238;28;20033;-81
2023/02/16 06:33:07;;;;;;;0.40;0.30;;;1.80;97.80;;;;;;5061989;28;20056;-81
2023/02/16 06:35:32;;;;;;;3.17;1.00;;;1.70;97.90;;;;;;5060177;28;20059;-81
2023/02/16 06:37:58;;;;;;;0.13;0.13;;;1.60;97.90;;;;;;5061418;28;20032;-82
2023/02/16 06:40:24;;;;;;;1.40;0.57;;;1.50;98.30;;;;;;5061439;28;20036;-80
2023/02/16 06:42:50;;;;;;;0.20;0.20;;;1.60;98.20;;;;;;5059771;28;20367;-81
2023/02/16 06:45:16;;;;;;;0.20;0.20;;;1.70;98.30;;;;;;5059893;28;20038;-81
2023/02/16 06:47:42;;;;;;;1.55;0.93;;;1.60;98.70;;;;;;5056481;28;20035;-83
2023/02/16 06:50:09;;;;;;;0.77;0.77;;;1.60;98.60;;;;;;5053929;28;20029;-78
2023/02/16 06:52:35;;;;;;;1.80;1.15;;;1.70;98.50;;;;;;5055482;28;20429;-77
2023/02/16 06:55:01;;;;;;;0.77;0.73;;;1.70;98.30;;;;;;5061731;28;20136;-78
2023/02/16 06:57:27;;;;;;;3.60;1.30;;;1.80;98.40;;;;;;5059998;28;20028;-77
2023/02/16 06:59:52;;;;;;;0.20;0.20;;;1.80;98.40;;;;;;5062915;28;20629;-77
2023/02/16 07:02:18;;;;;;;0.55;0.55;;;1.80;98.40;;;;;;5060890;28;20524;-78
2023/02/16 07:04:44;;;;;;;0.68;0.68;;;1.80;98.30;;;;;;5050278;28;20028;-78
2023/02/16 07:07:10;;;;;;;0.30;0.30;;;1.80;98.30;;;;;;5061602;28;20036;-79
2023/02/16 07:09:36;;;;;;;0.15;0.15;;;1.80;98.30;;;;;;5061892;28;20105;-78
2023/02/16 07:12:02;;;;;;;0.22;0.22;;;1.80;98.10;;;;;;5062327;28;20754;-78
2023/02/16 07:14:30;;;;;;;0.28;0.28;;;2.40;96.90;;;;;;5062161;28;20286;-77
2023/02/16 07:16:58;;;;;;;0.30;0.30;;;2.80;95.80;;;;;;5062098;28;20040;-79
2023/02/16 07:19:24;;;;;;;0.15;0.15;;;2.90;95.00;;;;;;5060508;28;20483;-78
2023/02/16 07:21:50;;;;;;;0.52;0.52;;;3.20;94.40;;;;;;5061373;28;20081;-78
2023/02/16 07:24:16;;;;;;;0.65;0.65;;;3.40;93.90;;;;;;5054308;28;20092;-82
2023/02/16 07:26:42;;;;;;;0.65;0.65;;;3.70;93.20;;;;;;5060117;28;20035;-81
2023/02/16 07:29:07;;;;;;;0.93;0.93;;;3.90;92.60;;;;;;5056586;28;20017;-79
2023/02/16 07:31:33;;;;;;;0.20;0.20;;;4.00;92.10;;;;;;5058030;28;20036;-78
2023/02/16 07:33:59;;;;;;;0.30;0.30;;;4.10;92.10;;;;;;5058997;28;20093;-78
2023/02/16 07:36:25;;;;;;;0.40;0.40;;;4.30;91.50;;;;;;5054120;28;20021;-78
2023/02/16 07:38:50;;;;;;;0.15;0.15;;;4.40;91.20;;;;;;5060892;28;20534;-80
2023/02/16 07:41:16;;;;;;;0.10;0.10;;;4.40;91.20;;;;;;5060289;28;20025;-79
2023/02/16 07:43:43;;;;;;;0.10;0.10;;;4.60;91.20;;;;;;5049836;28;20078;-81
2023/02/16 07:46:09;;;;;;;0.10;0.10;;;4.90;90.50;;;;;;5043573;28;20098;-80
2023/02/16 07:48:35;;;;;;;2.33;0.55;;;5.00;90.10;;;;;;5045473;28;20021;-79
2023/02/16 07:51:01;;;;;;;1.02;0.43;;;5.20;89.50;;;;;;5048838;28;20028;-80
2023/02/16 07:53:26;;;;;;;0.25;0.25;;;5.30;89.30;;;;;;5061641;28;20064;-81
2023/02/16 07:55:52;;;;;;;0.00;0.00;;;5.30;89.40;;;;;;5057826;28;20706;-84
2023/02/16 07:58:27;;;;;;;0.32;0.32;;;5.50;88.60;;;;;;5062103;28;20122;-80
2023/02/16 08:01:10;;;;;;;0.47;0.40;;;5.60;87.90;;;;;;5056281;28;20033;-82
2023/02/16 08:03:36;;;;;;;0.30;0.30;;;5.80;87.20;;;;;;5060220;28;20059;-83
2023/02/16 08:06:03;;;;;;;2.03;0.73;;;5.90;86.70;;;;;;5059646;28;20036;-80
2023/02/16 08:08:29;;;;;;;0.20;0.20;;;6.00;86.70;;;;;;5060891;28;20334;-79
2023/02/16 08:10:55;;;;;;;0.10;0.10;;;6.20;86.30;;;;;;5061680;28;20029;-80
2023/02/16 08:13:21;;;;;;;0.75;0.75;;;6.40;85.00;;;;;;5064518;28;20032;-82
2023/02/16 08:15:46;;;;;;;0.75;0.45;;;6.50;84.70;;;;;;5057054;28;20017;-81
2023/02/16 08:18:12;;;;;;;0.50;0.50;;;6.60;84.00;;;;;;5063209;28;20040;-81
2023/02/16 08:20:38;;;;;;;0.17;0.17;;;6.70;84.40;;;;;;5065165;28;20035;-80
2023/02/16 08:23:04;;;;;;;0.20;0.20;;;7.00;84.60;;;;;;5065116;28;20039;-80
2023/02/16 08:25:32;;;;;;;0.20;0.20;;;7.00;84.50;;;;;;5052055;28;20031;-80
2023/02/16 08:27:59;;;;;;;0.20;0.20;;;7.20;83.70;;;;;;5065276;28;20036;-80
2023/02/16 08:30:25;;;;;;;0.63;0.63;;;7.30;82.60;;;;;;5058708;28;20107;-80
2023/02/16 08:32:52;;;;;;;0.52;0.52;;;7.50;84.00;;;;;;5065079;28;20037;-81
2023/02/16 08:35:18;;;;;;;;;;;7.70;83.20;;;;;;5064354;28;20033;-81
2023/02/16 08:37:43;;;;;;;0.10;0.10;;;7.50;82.60;;;;;;5065089;28;20268;-80
2023/02/16 08:40:10;;;;;;;0.00;0.00;;;7.80;82.30;;;;;;5065919;28;20344;-79
2023/02/16 08:42:36;;;;;;;0.70;0.55;;;7.80;82.60;;;;;;5064757;28;20032;-81
2023/02/16 08:45:03;;;;;;;0.93;0.93;;;7.60;82.00;;;;;;5065605;28;20028;-80
2023/02/16 08:47:29;;;;;;;;;;;7.70;81.10;;;;;;5059763;28;20769;-80
2023/02/16 08:49:55;;;;;;;11.50;0.63;;;8.00;81.60;;;;;;5065428;28;19908;-81
2023/02/16 08:52:21;;;;;;;0.20;0.20;;;7.80;81.50;;;;;;5064043;28;20718;-81
2023/02/16 08:54:47;;;;;;;0.85;0.57;;;8.00;82.40;;;;;;5064878;28;20031;-81
2023/02/16 08:57:13;;;;;;;0.73;0.67;;;8.10;81.10;;;;;;5058443;28;20013;-80
2023/02/16 08:59:38;;;;;;;0.68;0.68;;;8.00;80.70;;;;;;5056282;28;20029;-81
2023/02/16 09:02:04;;;;;;;0.65;0.60;;;8.30;79.90;;;;;;5062513;28;20052;-80
2023/02/16 09:04:30;;;;;;;1.15;0.98;;;8.30;80.80;;;;;;5064654;28;20870;-80
2023/02/16 09:06:57;;;;;;;0.38;0.38;;;8.40;81.00;;;;;;5052781;28;20036;-81
2023/02/16 09:09:23;;;;;;;0.32;0.32;;;8.50;80.30;;;;;;5064869;28;20692;-81
2023/02/16 09:11:49;;;;;;;0.35;0.35;;;8.60;80.20;;;;;;5049632;28;20064;-81
2023/02/16 09:14:17;;;;;;;0.57;0.57;;;8.80;79.20;;;;;;5055997;28;20054;-81
2023/02/16 09:16:47;;;;;;;0.47;0.32;;;8.90;79.90;;;;;;5060809;28;20033;-81
2023/02/16 09:19:14;;;;;;;0.55;0.55;;;9.00;79.90;;;;;;5062263;28;20051;-81
2023/02/16 09:21:41;;;;;;;0.32;0.32;;;9.20;78.80;;;;;;5057167;28;20029;-80
2023/02/16 09:24:07;;;;;;;0.30;0.30;;;9.30;78.90;;;;;;5062450;28;20081;-80
2023/02/16 09:26:40;;;;;;;1.52;1.17;;;9.40;78.00;;;;;;5058693;28;20040;-81
2023/02/16 09:29:06;;;;;;;0.90;0.43;;;9.30;77.50;;;;;;5059544;28;20298;-80
2023/02/16 09:31:34;;;;;;;0.10;0.10;;;9.60;78.80;;;;;;5053223;28;20029;-80
2023/02/16 09:34:26;;;;;;;1.25;0.70;;;9.90;78.00;;;;;;5048727;28;20029;-80
2023/02/16 09:36:52;;;;;;;0.00;0.00;;;10.20;78.40;;;;;;5059611;28;20128;-82
2023/02/16 09:39:18;;;;;;;4.72;2.00;;;10.20;76.00;;;;;;5056015;28;20116;-82
2023/02/16 09:42:11;;;;;;;0.93;0.93;;;10.20;75.90;;;;;;5062649;28;20036;-81
2023/02/16 09:44:49;;;;;;;1.65;1.00;;;10.20;75.70;;;;;;5061448;28;20503;-80
2023/02/16 09:47:30;;;;;;;0.20;0.20;;;10.00;76.10;;;;;;5062393;28;20034;-80
2023/02/16 09:50:02;;;;;;;0.10;0.10;;;9.80;77.60;;;;;;5047538;28;20040;-82
2023/02/16 09:52:35;;;;;;;1.13;1.10;;;9.70;77.10;;;;;;5055641;28;20029;-81
2023/02/16 09:55:07;;;;;;;1.55;1.30;;;10.00;78.20;;;;;;5058774;28;20056;-81
2023/02/16 09:57:59;;;;;;;0.40;0.40;;;9.80;77.10;;;;;;5053035;28;20021;-81
2023/02/16 10:00:36;;;;;;;1.52;1.42;;;10.00;77.40;;;;;;5063129;28;20031;-79
2023/02/16 10:03:27;;;;;;;0.55;0.55;;;10.30;76.60;;;;;;5059526;28;20503;-80
2023/02/16 10:06:14;;;;;;;0.75;0.75;;;10.50;76.60;;;;;;5061809;28;20520;-81
2023/02/16 10:08:44;;;;;;;0.40;0.40;;;10.20;77.80;;;;;;5058484;28;20033;-80
2023/02/16 10:11:37;;;;;;;2.35;2.10;;;10.20;76.70;;;;;;5062591;28;20025;-82
2023/02/16 10:14:32;;;;;;;2.20;1.00;;;10.30;77.50;;;;;;5046512;28;20043;-80
2023/02/16 10:16:58;;;;;;;0.38;0.38;;;10.40;77.70;;;;;;5019247;28;20121;-82
2023/02/16 10:19:34;;;;;;;0.22;0.22;;;10.50;77.50;;;;;;5046766;28;20070;-82
2023/02/16 10:22:04;;;;;;;0.30;0.30;;;10.50;78.70;;;;;;5052721;28;20046;-79
2023/02/16 10:24:40;;;;;;;1.80;1.05;;;10.60;77.80;;;;;;5061723;28;20028;-79
2023/02/16 10:27:13;;;;;;;1.13;0.85;;;10.60;78.70;;;;;;5062211;28;20107;-81
2023/02/16 10:29:39;;;;;;;0.32;0.32;;;10.70;77.60;;;;;;5062208;28;20491;-79
2023/02/16 10:32:21;;;;;;;0.47;0.47;;;10.90;77.60;;;;;;5062932;28;20032;-79
2023/02/16 10:35:03;;;;;;;0.20;0.20;;;10.70;77.70;;;;;;5053463;28;20042;-80
2023/02/16 10:37:41;;;;;;;0.68;0.68;;;10.90;78.50;;;;;;5061934;28;20031;-80
2023/02/16 10:40:18;;;;;;;0.57;0.57;;;11.00;78.20;;;;;;5058394;28;20573;-80
2023/02/16 10:42:52;;;;;;;1.20;1.13;;;11.10;77.70;;;;;;5055697;28;20093;-80
2023/02/16 10:45:25;;;;;;;0.30;0.30;;;11.20;79.90;;;;;;5061007;28;20029;-79
2023/02/16 10:47:51;;;;;;;1.20;0.40;;;11.10;79.30;;;;;;5060215;28;20085;-80
2023/02/16 10:50:32;;;;;;;0.25;0.25;;;11.30;78.80;;;;;;5062387;28;20327;-80
2023/02/16 10:53:05;;;;;;;0.15;0.15;;;11.30;78.50;;;;;;5061710;28;20029;-80
2023/02/16 10:55:31;;;;;;;0.52;0.52;;;11.30;80.20;;;;;;5054881;28;20060;-80
2023/02/16 10:57:59;;;;;;;0.45;0.45;;;11.40;80.00;;;;;;5061962;28;20547;-80
2023/02/16 11:01:07;;;;;;;0.55;0.55;;;11.30;80.10;;;;;;5062252;28;20028;-79
2023/02/16 11:03:42;;;;;;;0.32;0.32;;;11.50;82.80;;;;;;5061601;28;20089;-80
2023/02/16 11:06:21;;;;;;;0.32;0.32;;;11.70;84.90;;;;;;5062013;28;20053;-80
2023/02/16 11:09:03;;;;;;;0.70;0.70;;;11.90;83.40;;;;;;5061250;28;20769;-80
2023/02/16 11:11:37;;;;;;;1.40;0.90;;;11.90;85.10;;;;;;5061469;28;20040;-80
2023/02/16 11:14:08;;;;;;;0.75;0.60;;;11.90;85.20;;;;;;5062319;28;20106;-81
2023/02/16 11:16:34;;;;;;;0.30;0.30;;;11.90;84.90;;;;;;5061239;28;20027;-80
2023/02/16 11:19:17;;;;;;;0.32;0.32;;;11.90;83.60;;;;;;5061727;28;20431;-80
2023/02/16 11:21:43;;;;;;;0.70;0.70;;;11.90;90.00;;;;;;5060636;28;20028;-80
2023/02/16 11:24:12;;;;;;;0.63;0.63;;;11.90;86.10;;;;;;5062041;28;20032;-80
2023/02/16 11:26:38;;;;;;;1.75;1.48;;;11.90;84.00;;;;;;5061131;28;20052;-79
2023/02/16 11:29:18;;;;;;;0.28;0.28;;;11.90;85.60;;;;;;5061354;28;20104;-80
2023/02/16 11:31:44;;;;;;;0.73;0.63;;;11.80;83.50;;;;;;5061453;28;20021;-80
2023/02/16 11:34:31;;;;;;;0.50;0.50;;;11.80;84.60;;;;;;5060092;28;20032;-80
2023/02/16 11:37:15;;;;;;;1.65;0.57;;;11.80;83.70;;;;;;5055053;28;20036;-80
2023/02/16 11:39:51;;;;;;;0.15;0.15;;;12.10;85.80;;;;;;5061663;28;20013;-81
2023/02/16 11:42:39;;;;;;;0.15;0.15;;;12.10;84.90;;;;;;5061725;28;20059;-80
2023/02/16 11:45:07;;;;;;;0.10;0.10;;;12.20;86.90;;;;;;5054544;28;20029;-80
2023/02/16 11:47:34;;;;;;;1.20;0.63;;;12.20;86.40;;;;;;5063618;28;20085;-80
2023/02/16 11:50:18;;;;;;;2.88;0.40;;;12.10;84.90;;;;;;5065403;28;20031;-80
2023/02/16 11:52:47;;;;;;;0.40;0.40;;;11.90;84.00;;;;;;5065265;28;20029;-80
2023/02/16 11:55:34;;;;;;;2.00;1.00;;;11.90;85.70;;;;;;5066306;28;20880;-81
2023/02/16 11:58:16;;;;;;;0.32;0.32;;;11.90;84.20;;;;;;5065769;28;20039;-81
2023/02/16 12:00:58;;;;;;;1.25;0.68;;;11.80;85.60;;;;;;5065712;28;20025;-80
2023/02/16 12:03:51;;;;;;;1.08;0.68;;;12.00;86.90;;;;;;5063121;28;20068;-81
2023/02/16 12:06:45;;;;;;;0.65;0.47;;;11.80;85.10;;;;;;5064618;28;20027;-80
2023/02/16 12:09:17;;;;;;;0.40;0.35;;;11.90;86.10;;;;;;5060754;28;20059;-80
2023/02/16 12:12:04;;;;;;;0.10;0.10;;;11.90;86.00;;;;;;5065652;28;20033;-81
2023/02/16 12:14:57;;;;;;;0.90;0.90;;;12.10;86.70;;;;;;5064883;28;20033;-80
2023/02/16 12:17:41;;;;;;;0.90;0.90;;;12.00;85.50;;;;;;5061439;28;20177;-81
2023/02/16 12:20:27;;;;;;;0.43;0.28;;;12.20;86.90;;;;;;5063507;28;20032;-80
2023/02/16 12:23:09;;;;;;;0.32;0.32;;;12.10;86.20;;;;;;5061568;28;20680;-80
2023/02/16 12:26:08;;;;;;;0.50;0.50;;;11.90;85.20;;;;;;5063996;28;20025;-80
2023/02/16 12:28:53;;;;;;;0.15;0.15;;;12.00;88.00;;;;;;5058583;28;20438;-80
2023/02/16 12:31:56;;;;;;;0.30;0.30;;;12.10;86.20;;;;;;5057139;28;20509;-80
2023/02/16 12:34:51;;;;;;;0.20;0.20;;;12.00;86.40;;;;;;5063087;28;20487;-80
2023/02/16 12:37:35;;;;;;;0.17;0.17;;;12.00;84.80;;;;;;5062170;28;20028;-80
2023/02/16 12:40:16;;;;;;;0.50;0.50;;;12.20;89.80;;;;;;5064319;28;20031;-81
2023/02/16 12:43:09;;;;;;;0.25;0.25;;;12.40;89.80;;;;;;5059300;28;20025;-81
2023/02/16 12:45:39;;;;;;;2.65;1.05;;;12.40;89.70;;;;;;5063657;28;20032;-80
2023/02/16 12:48:32;;;;;;;0.20;0.20;;;12.40;90.00;;;;;;5056172;28;20024;-80
2023/02/16 12:51:01;;;;;;;0.38;0.38;;;12.30;87.70;;;;;;5059895;28;20034;-80
2023/02/16 12:53:43;;;;;;;0.35;0.35;;;12.30;86.20;;;;;;5064153;28;20032;-80
2023/02/16 12:56:18;;;;;;;0.10;0.10;;;12.30;86.60;;;;;;5064502;28;20035;-80
2023/02/16 12:58:52;;;;;;;0.20;0.20;;;12.30;85.70;;;;;;5063689;28;20025;-81
2023/02/16 13:01:24;;;;;;;0.52;0.52;;;12.40;83.50;;;;;;5058054;28;20106;-79
2023/02/16 13:03:57;;;;;;;0.60;0.60;;;12.40;86.70;;;;;;5063762;28;20033;-80
2023/02/16 13:06:32;;;;;;;0.10;0.10;;;12.20;82.50;;;;;;5059627;28;20032;-80
2023/02/16 13:09:32;;;;;;;1.48;0.65;;;12.50;84.40;;;;;;5053714;28;20040;-80
2023/02/16 13:12:24;;;;;;;0.20;0.20;;;12.30;83.20;;;;;;5063528;28;20182;-80
2023/02/16 13:15:14;;;;;;;0.10;0.10;;;12.50;84.90;;;;;;5055486;28;20886;-80
2023/02/16 13:18:01;;;;;;;0.20;0.20;;;12.40;84.10;;;;;;5063459;28;20020;-79
2023/02/16 13:20:26;;;;;;;0.82;0.30;;;12.30;83.10;;;;;;5054817;28;20110;-80
2023/02/16 13:23:17;;;;;;;0.10;0.10;;;12.30;81.90;;;;;;5063572;28;20040;-80
2023/02/16 13:26:17;;;;;;;0.10;0.10;;;12.10;80.10;;;;;;5062954;28;20198;-80
2023/02/16 13:29:22;;;;;;;0.45;0.45;;;12.00;82.40;;;;;;5055076;28;20036;-81
2023/02/16 13:32:09;;;;;;;0.82;0.82;;;12.10;83.60;;;;;;5048521;28;20511;-80
2023/02/16 13:34:56;;;;;;;1.35;0.70;;;12.00;81.80;;;;;;5058925;28;20075;-80
2023/02/16 13:37:45;;;;;;;0.45;0.45;;;12.10;84.50;;;;;;5063446;28;20139;-80
2023/02/16 13:40:17;;;;;;;0.20;0.20;;;12.20;84.70;;;;;;5056766;28;20024;-81
2023/02/16 13:43:12;;;;;;;0.57;0.50;;;12.00;82.90;;;;;;5062607;28;20617;-80
2023/02/16 13:45:41;;;;;;;0.40;0.40;;;12.00;82.20;;;;;;5062785;28;20099;-80
2023/02/16 13:48:22;;;;;;;0.55;0.55;;;11.80;83.00;;;;;;5061240;28;20025;-80
2023/02/16 13:51:02;;;;;;;0.10;0.10;;;11.80;81.90;;;;;;5056098;28;20028;-80
2023/02/16 13:53:51;;;;;;;0.10;0.10;;;11.90;84.00;;;;;;5059011;28;20157;-80
2023/02/16 13:56:29;;;;;;;0.20;0.20;;;12.20;81.80;;;;;;5062820;28;20106;-80